Riverton, IL (62561)

3:01 AM CST on February 12, 2016 (GMT -0600)
Gietl Park / Northgate | | Change Station
CLOSE
Current Station
Personal Weather Station
Location: Springfield, IL
Elevation: 591 ft
Nearby Weather Stations

Elev 591 ft 39.83 °N, 89.61 °W | Updated 45 seconds ago

Snow
Snow
22.5 °F
Feels Like 22 °F
N
0.0
Wind Variable Wind from SSE

Today
High -- | Low -- °F
--% Chance of Precip.
Yesterday
High -- | Low -- °F
Precip. -- in
Pressure 30.25 in
Visibility 2.0 miles
Clouds Overcast 2200 ft
Windchill 22 °F
Dew Point 20 °F
Humidity 91%
Rainfall 0.00 in
Snow Depth Not available.
6:54 AM 5:30 PM
Waxing Crescent, 19% visible
METAR KSPI 120852Z AUTO 00000KT 2SM -SN BR OVC022 M05/M07 A3022 RMK AO2 SLP242 P0002 60003 T10501067 58011 TSNO
Pressure 30.25 in
Visibility 2.0 miles
Clouds Overcast 2200 ft
Windchill 22 °F
Dew Point 20 °F
Humidity 91%
Rainfall 0.00 in
Snow Depth Not available.
6:54 AM 5:30 PM
Waxing Crescent, 19% visible
METAR KSPI 120852Z AUTO 00000KT 2SM -SN BR OVC022 M05/M07 A3022 RMK AO2 SLP242 P0002 60003 T10501067 58011 TSNO

10-Day Weather Forecast

Almanac

Astronomy

Feb. 12, 2016 Rise Set
Actual Time
Civil Twilight
Nautical Twilight
Astronomical Twilight
Moon
Length of Visible Light
Length of Day
Tomorrow will be .
, % of the Moon is Illuminated

Today's Extremes

State Highs State Lows

Community

WunderPhotos

Upload Photos

1,892,286 photos uploaded!

WunderBlog® & News

Nearby

Air Quality

  Air Quality AQ Index Pollutant
Not available.

Snow Depth

Station Depth Elevation

Earthquake Activity

City Distance Mag. Time & Date
Minimum magnitude displayed is 2.5.

Coastal Water Temperatures

Place Temperature

Stations

Nearby Weather Stations

Station Location Temp. Windchill Dew Point Humidity Wind Precip. Elev Updated Type
                   

Watches & Warnings

There are currently no watches in effect.